createdAt,value
2018-09-21T00:01:38.922Z,98443.10
2018-09-21T00:04:43.978Z,98448.11
2018-09-21T00:07:49.019Z,98442.05
2018-09-21T00:10:54.085Z,98436.23
2018-09-21T00:14:00.144Z,98445.16
2018-09-21T00:17:05.171Z,98439.89
2018-09-21T00:20:10.915Z,98432.07
2018-09-21T00:23:15.910Z,98427.88
2018-09-21T00:26:20.927Z,98428.84
2018-09-21T00:29:25.939Z,98419.12
2018-09-21T00:32:30.905Z,98409.10
2018-09-21T00:35:35.912Z,98406.02
2018-09-21T00:38:40.915Z,98403.42
2018-09-21T00:41:45.909Z,98398.98
2018-09-21T00:44:51.036Z,98399.64
2018-09-21T00:47:56.827Z,98397.05
2018-09-21T00:51:02.789Z,98396.80
2018-09-21T00:54:07.799Z,98385.65
2018-09-21T00:57:12.819Z,98387.59
2018-09-21T01:00:18.397Z,98385.75
2018-09-21T01:03:24.062Z,98377.44
2018-09-21T01:06:29.108Z,98375.81
2018-09-21T01:09:35.258Z,98376.27
2018-09-21T01:12:40.273Z,98372.88
2018-09-21T01:15:45.359Z,98367.78
2018-09-21T01:18:53.149Z,98359.16
2018-09-21T01:21:58.189Z,98362.45
2018-09-21T01:25:03.214Z,98363.92
2018-09-21T01:28:08.235Z,98353.57
2018-09-21T01:31:14.456Z,98348.88
2018-09-21T01:34:19.494Z,98342.66
2018-09-21T01:37:25.649Z,98338.27
2018-09-21T01:40:31.367Z,98332.58
2018-09-21T01:43:36.386Z,98332.36
2018-09-21T01:46:42.997Z,98324.39
2018-09-21T01:49:48.024Z,98326.08
2018-09-21T01:52:53.084Z,98324.26
2018-09-21T01:55:58.366Z,98325.43
2018-09-21T01:59:03.398Z,98311.00
2018-09-21T02:02:09.212Z,98312.00
2018-09-21T02:05:14.225Z,98294.73
2018-09-21T02:08:19.248Z,98296.09
2018-09-21T02:11:24.286Z,98290.99
2018-09-21T02:14:29.306Z,98286.39
2018-09-21T02:17:34.324Z,98287.44
2018-09-21T02:20:39.326Z,98285.13
2018-09-21T02:23:44.318Z,98284.01
2018-09-21T02:26:49.878Z,98291.25
2018-09-21T02:29:54.875Z,98283.80
2018-09-21T02:32:59.871Z,98277.42
2018-09-21T02:36:05.498Z,98271.67
2018-09-21T02:39:10.525Z,98268.08
2018-09-21T02:42:15.587Z,98269.11
2018-09-21T02:45:20.620Z,98259.81
2018-09-21T02:48:25.663Z,98260.61
2018-09-21T02:51:31.098Z,98256.10
2018-09-21T02:54:37.132Z,98253.38
2018-09-21T02:57:42.232Z,98255.98
2018-09-21T03:00:47.379Z,98247.32
2018-09-21T03:03:52.286Z,98248.53
2018-09-21T03:06:57.324Z,98246.61
2018-09-21T03:10:02.359Z,98239.27
2018-09-21T03:13:08.449Z,98232.93
2018-09-21T03:16:13.492Z,98224.70
2018-09-21T03:19:19.674Z,98231.59
2018-09-21T03:22:25.729Z,98233.78
2018-09-21T03:25:30.820Z,98226.69
2018-09-21T03:28:36.712Z,98219.56
2018-09-21T03:31:41.831Z,98211.23
2018-09-21T03:34:46.868Z,98205.78
2018-09-21T03:37:53.070Z,98190.27
2018-09-21T03:40:59.215Z,98191.05
2018-09-21T03:44:04.194Z,98183.20
2018-09-21T03:47:09.183Z,98184.84
2018-09-21T03:50:14.159Z,98177.73
2018-09-21T03:53:19.166Z,98180.73
2018-09-21T03:56:24.218Z,98173.14
2018-09-21T03:59:29.215Z,98170.31
2018-09-21T04:02:35.519Z,98165.14
2018-09-21T04:05:40.514Z,98166.05
2018-09-21T04:08:45.505Z,98166.39
2018-09-21T04:11:50.517Z,98163.78
2018-09-21T04:14:55.568Z,98156.12
2018-09-21T04:18:00.562Z,98156.08
2018-09-21T04:21:05.766Z,98141.56
2018-09-21T04:24:11.495Z,98139.03
2018-09-21T04:27:16.583Z,98137.73
2018-09-21T04:30:22.930Z,98131.89
2018-09-21T04:33:27.997Z,98138.22
2018-09-21T04:36:33.026Z,98132.98
2018-09-21T04:39:38.216Z,98129.28
2018-09-21T04:42:43.268Z,98123.19
2018-09-21T04:45:48.543Z,98130.07
2018-09-21T04:48:53.547Z,98124.58
2018-09-21T04:51:58.841Z,98118.87
2018-09-21T04:55:04.090Z,98126.20
2018-09-21T04:58:09.196Z,98121.39
2018-09-21T05:01:14.296Z,98112.55
2018-09-21T05:04:19.362Z,98111.80
2018-09-21T05:07:25.198Z,98106.40
2018-09-21T05:10:30.618Z,98102.30
2018-09-21T05:14:56.746Z,98101.50
2018-09-21T05:18:02.949Z,98115.27
2018-09-21T05:21:08.778Z,98119.51
2018-09-21T05:24:13.737Z,98115.20
2018-09-21T05:27:19.678Z,98112.02
2018-09-21T05:30:24.702Z,98107.03
2018-09-21T05:33:29.767Z,98103.59
2018-09-21T05:36:34.760Z,98103.33
2018-09-21T05:39:39.785Z,98103.55
2018-09-21T05:42:44.823Z,98101.91
2018-09-21T05:45:50.263Z,98103.73
2018-09-21T05:48:55.444Z,98098.32
2018-09-21T05:52:00.481Z,98092.66
2018-09-21T05:55:05.759Z,98096.34
2018-09-21T05:58:10.816Z,98089.23
2018-09-21T06:01:15.801Z,98086.75
2018-09-21T06:04:20.768Z,98093.77
2018-09-21T06:07:25.746Z,98085.75
2018-09-21T06:10:30.711Z,98088.01
2018-09-21T06:13:35.702Z,98091.02
2018-09-21T06:16:40.672Z,98081.55
2018-09-21T06:19:45.645Z,98076.79
2018-09-21T06:22:50.634Z,98073.11
2018-09-21T06:25:55.664Z,98072.31
2018-09-21T06:29:00.694Z,98078.02
2018-09-21T06:32:05.676Z,98087.22
2018-09-21T06:35:10.670Z,98091.69
2018-09-21T06:38:15.654Z,98083.48
2018-09-21T06:41:20.665Z,98088.75
2018-09-21T06:44:25.661Z,98101.98
2018-09-21T06:47:30.670Z,98091.12
2018-09-21T06:50:35.774Z,98121.88
2018-09-21T06:53:40.894Z,98116.64
2018-09-21T06:56:46.016Z,98129.77
2018-09-21T06:59:51.030Z,98127.58
2018-09-21T07:02:56.174Z,98130.45
2018-09-21T07:06:01.320Z,98132.31
2018-09-21T07:09:10.427Z,98146.91
2018-09-21T07:12:15.430Z,98142.40
2018-09-21T07:15:20.422Z,98135.02
2018-09-21T07:18:25.400Z,98141.72
2018-09-21T07:21:30.505Z,98134.47
2018-09-21T07:24:35.442Z,98133.56
2018-09-21T07:27:40.403Z,98138.35
2018-09-21T07:30:45.348Z,98126.77
2018-09-21T07:33:50.330Z,98127.84
2018-09-21T07:36:55.283Z,98131.09
2018-09-21T07:40:00.267Z,98138.12
2018-09-21T07:43:05.272Z,98131.97
2018-09-21T07:46:10.182Z,98127.33
2018-09-21T07:49:15.252Z,98137.09
2018-09-21T07:52:20.205Z,98127.53
2018-09-21T07:55:25.155Z,98132.59
2018-09-21T07:58:30.135Z,98127.47
2018-09-21T08:01:35.081Z,98129.21
2018-09-21T08:04:40.039Z,98141.30
2018-09-21T08:07:45.022Z,98131.91
2018-09-21T08:10:50.001Z,98144.59
2018-09-21T08:13:55.012Z,98143.63
2018-09-21T08:16:59.999Z,98142.41
2018-09-21T08:20:05.010Z,98141.44
2018-09-21T08:23:10.013Z,98149.95
2018-09-21T08:26:15.079Z,98144.25
2018-09-21T08:29:20.089Z,98148.48
2018-09-21T08:32:25.114Z,98161.33
2018-09-21T08:35:30.144Z,98155.55
2018-09-21T08:38:36.203Z,98136.16
2018-09-21T08:41:41.444Z,98139.13
2018-09-21T08:44:48.369Z,98133.28
2018-09-21T08:47:53.498Z,98119.14
2018-09-21T08:50:58.553Z,98120.27
2018-09-21T08:54:03.693Z,98134.37
2018-09-21T08:57:08.698Z,98120.27
2018-09-21T09:00:13.725Z,98110.11
2018-09-21T09:03:18.744Z,98118.70
2018-09-21T09:06:23.721Z,98135.14
2018-09-21T09:09:28.757Z,98130.77
2018-09-21T09:12:33.765Z,98123.38
2018-09-21T09:15:38.818Z,98149.33
2018-09-21T09:18:43.893Z,98148.09
2018-09-21T09:21:48.899Z,98137.07
2018-09-21T09:24:53.995Z,98140.13
2018-09-21T09:27:59.054Z,98132.25
2018-09-21T09:31:04.135Z,98125.17
2018-09-21T09:34:09.197Z,98114.02
2018-09-21T09:37:15.878Z,98118.39
2018-09-21T09:40:20.999Z,98110.25
2018-09-21T09:43:27.195Z,98107.34
2018-09-21T09:46:32.251Z,98099.55
2018-09-21T09:49:37.314Z,98098.34
2018-09-21T09:52:43.537Z,98102.99
2018-09-21T09:55:50.430Z,98118.39
2018-09-21T09:58:56.362Z,98114.48
2018-09-21T10:02:01.586Z,98108.42
2018-09-21T10:05:06.647Z,98107.53
2018-09-21T10:08:12.826Z,98089.33
2018-09-21T10:11:20.142Z,98077.17
2018-09-21T10:14:25.161Z,98085.23
2018-09-21T10:17:30.927Z,98083.33
2018-09-21T10:20:36.756Z,98082.19
2018-09-21T10:23:41.728Z,98084.65
2018-09-21T10:26:47.613Z,98064.17
2018-09-21T10:29:52.592Z,98065.02
2018-09-21T10:32:57.678Z,98081.32
2018-09-21T10:36:02.735Z,98060.37
2018-09-21T10:39:08.048Z,98060.31
2018-09-21T10:42:12.988Z,98067.36
2018-09-21T10:45:17.938Z,98058.89
2018-09-21T10:48:22.900Z,98044.53
2018-09-21T10:51:27.889Z,98030.99
2018-09-21T10:54:32.883Z,98043.22
2018-09-21T10:57:37.862Z,98036.69
2018-09-21T11:00:43.057Z,98020.48
2018-09-21T11:03:48.210Z,98009.96
2018-09-21T11:06:53.319Z,97985.47
2018-09-21T11:09:58.607Z,98031.02
2018-09-21T11:13:03.976Z,98047.95
2018-09-21T11:16:09.075Z,98050.40
2018-09-21T11:19:14.153Z,98093.53
2018-09-21T11:22:19.469Z,98055.82
2018-09-21T11:25:24.585Z,98044.55
2018-09-21T11:28:29.570Z,98045.03
2018-09-21T11:31:34.585Z,98070.51
2018-09-21T11:34:39.600Z,98077.06
2018-09-21T11:37:44.631Z,98079.81
2018-09-21T11:40:49.651Z,98083.91
2018-09-21T11:43:54.762Z,98076.45
2018-09-21T11:47:00.800Z,98111.92
2018-09-21T11:50:05.832Z,98114.00
2018-09-21T11:53:12.006Z,98119.92
2018-09-21T11:56:17.009Z,98108.63
2018-09-21T11:59:22.017Z,98128.47
2018-09-21T12:02:27.047Z,98080.94
2018-09-21T12:05:32.033Z,98098.14
2018-09-21T12:08:37.854Z,98075.44
2018-09-21T12:14:50.041Z,98061.69
2018-09-21T12:17:55.043Z,98051.20
2018-09-21T12:21:00.034Z,98048.36
2018-09-21T12:24:05.058Z,98055.95
2018-09-21T12:27:10.115Z,98054.22
2018-09-21T12:30:15.104Z,98068.89
2018-09-21T12:33:20.084Z,98083.23
2018-09-21T12:36:25.163Z,98105.80
2018-09-21T12:39:30.240Z,98104.48
2018-09-21T12:42:35.436Z,98106.56
2018-09-21T12:45:40.454Z,98095.15
2018-09-21T12:48:45.484Z,98118.91
2018-09-21T12:51:50.983Z,98142.65
2018-09-21T12:54:56.094Z,98145.92
2018-09-21T12:58:01.361Z,98156.16
2018-09-21T13:01:06.667Z,98168.02
2018-09-21T13:04:11.803Z,98183.05
2018-09-21T13:07:17.257Z,98232.48
2018-09-21T13:10:22.407Z,98263.77
2018-09-21T13:13:27.382Z,98274.36
2018-09-21T13:16:32.356Z,98269.48
2018-09-21T13:28:44.048Z,98303.27
2018-09-21T13:31:49.015Z,98293.66
2018-09-21T13:34:54.014Z,98317.58
2018-09-21T13:38:00.000Z,98349.06
2018-09-21T13:41:05.021Z,98353.35
2018-09-21T13:44:10.016Z,98350.41
2018-09-21T13:47:14.983Z,98365.64
2018-09-21T13:50:20.196Z,98359.83
2018-09-21T13:53:25.184Z,98379.48
2018-09-21T13:56:30.272Z,98416.57
2018-09-21T13:59:35.310Z,98432.56
2018-09-21T14:02:41.263Z,98429.11
2018-09-21T14:05:46.313Z,98431.50
2018-09-21T14:08:51.338Z,98407.47
2018-09-21T14:11:56.294Z,98402.61
2018-09-21T14:15:01.327Z,98391.36
2018-09-21T14:18:06.357Z,98375.75
2018-09-21T14:21:11.534Z,98375.60
2018-09-21T14:24:16.825Z,98371.55
2018-09-21T14:27:22.087Z,98364.28
2018-09-21T14:30:27.240Z,98375.05
2018-09-21T14:33:32.383Z,98378.41
2018-09-21T14:36:37.646Z,98402.13
2018-09-21T14:39:42.950Z,98403.65
2018-09-21T14:42:48.078Z,98432.89
2018-09-21T14:45:53.224Z,98432.01
2018-09-21T14:48:58.474Z,98436.80
2018-09-21T14:52:03.652Z,98448.91
2018-09-21T14:55:09.212Z,98441.20
2018-09-21T14:58:14.384Z,98446.63
2018-09-21T15:01:19.802Z,98444.38
2018-09-21T15:04:24.923Z,98452.17
2018-09-21T15:07:30.360Z,98449.62
2018-09-21T15:10:35.346Z,98456.91
2018-09-21T15:13:40.303Z,98458.63
2018-09-21T15:16:45.471Z,98464.64
2018-09-21T15:19:50.500Z,98475.01
2018-09-21T15:22:55.457Z,98461.96
2018-09-21T15:26:00.444Z,98458.75
2018-09-21T15:29:05.694Z,98478.98
2018-09-21T15:32:12.118Z,98471.84
2018-09-21T15:35:17.285Z,98481.63
2018-09-21T15:38:22.455Z,98482.88
2018-09-21T15:41:27.453Z,98485.38
2018-09-21T15:44:32.448Z,98491.75
2018-09-21T15:47:37.415Z,98496.02
2018-09-21T15:50:42.386Z,98503.98
2018-09-21T15:53:47.344Z,98500.53
2018-09-21T15:56:52.297Z,98505.29
2018-09-21T15:59:57.391Z,98518.12
2018-09-21T16:03:02.442Z,98522.15
2018-09-21T16:06:07.492Z,98523.97
2018-09-21T16:09:12.427Z,98536.05
2018-09-21T16:12:17.397Z,98539.69
2018-09-21T16:15:22.374Z,98549.41
2018-09-21T16:18:27.339Z,98545.89
2018-09-21T16:21:32.344Z,98553.44
2018-09-21T16:24:37.739Z,98561.44
2018-09-21T16:27:43.037Z,98565.64
2018-09-21T16:30:48.320Z,98565.78
2018-09-21T16:33:53.653Z,98568.37
2018-09-21T16:36:58.907Z,98577.52
2018-09-21T16:40:04.186Z,98575.90
2018-09-21T16:43:09.734Z,98587.91
2018-09-21T16:46:14.962Z,98586.72
2018-09-21T16:49:20.461Z,98595.63
2018-09-21T16:52:25.691Z,98614.30
2018-09-21T16:55:30.877Z,98612.35
2018-09-21T16:58:36.157Z,98624.80
2018-09-21T17:01:41.507Z,98619.39
2018-09-21T17:04:46.975Z,98633.30
2018-09-21T17:07:52.163Z,98640.74
2018-09-21T17:10:57.322Z,98642.02
2018-09-21T17:14:02.725Z,98655.38
2018-09-21T17:17:07.947Z,98665.30
2018-09-21T17:20:13.198Z,98673.47
2018-09-21T17:23:18.418Z,98679.84
2018-09-21T17:26:23.498Z,98683.56
2018-09-21T17:29:28.681Z,98691.15
2018-09-21T17:32:33.760Z,98703.67
2018-09-21T17:35:39.105Z,98699.59
2018-09-21T17:38:44.146Z,98708.11
2018-09-21T17:41:49.148Z,98721.69
2018-09-21T17:44:54.228Z,98728.54
2018-09-21T17:47:59.261Z,98735.88
2018-09-21T17:51:04.309Z,98737.99
2018-09-21T17:54:09.277Z,98746.94
2018-09-21T17:57:14.400Z,98757.58
2018-09-21T18:00:19.434Z,98758.93
2018-09-21T18:03:24.438Z,98764.28
2018-09-21T18:06:29.458Z,98771.17
2018-09-21T18:09:34.519Z,98771.77
2018-09-21T18:12:41.834Z,98779.02
2018-09-21T18:15:46.987Z,98781.25
2018-09-21T18:18:51.979Z,98791.90
2018-09-21T18:21:56.977Z,98798.35
2018-09-21T18:25:01.981Z,98796.06
2018-09-21T18:28:07.195Z,98802.21
2018-09-21T18:31:12.254Z,98803.20
2018-09-21T18:34:17.288Z,98806.89
2018-09-21T18:37:22.368Z,98810.08
2018-09-21T18:40:27.410Z,98821.59
2018-09-21T18:43:32.545Z,98829.15
2018-09-21T18:46:37.578Z,98829.84
2018-09-21T18:49:42.541Z,98826.79
2018-09-21T18:52:48.077Z,98839.17
2018-09-21T18:55:53.124Z,98843.34
2018-09-21T18:58:58.336Z,98844.03
2018-09-21T19:02:03.351Z,98849.09
2018-09-21T19:05:08.827Z,98856.83
2018-09-21T19:08:13.839Z,98862.18
2018-09-21T19:11:18.823Z,98860.02
2018-09-21T19:14:23.846Z,98857.55
2018-09-21T19:17:28.882Z,98862.80
2018-09-21T19:20:33.934Z,98876.90
2018-09-21T19:23:39.017Z,98886.99
2018-09-21T19:26:44.351Z,98892.56
2018-09-21T19:29:49.351Z,98900.47
2018-09-21T19:32:54.430Z,98901.47
2018-09-21T19:35:59.441Z,98906.55
2018-09-21T19:39:07.853Z,98910.79
2018-09-21T19:42:14.074Z,98920.05
2018-09-21T19:45:19.264Z,98924.81
2018-09-21T19:48:24.251Z,98937.70
2018-09-21T19:51:29.158Z,98939.06
2018-09-21T19:54:35.167Z,98946.31
2018-09-21T19:57:40.238Z,98950.28
2018-09-21T20:00:45.274Z,98959.80
2018-09-21T20:03:51.290Z,98962.12
2018-09-21T20:06:56.299Z,98949.51
2018-09-21T20:10:01.489Z,98967.70
2018-09-21T20:13:06.673Z,98973.40
2018-09-21T20:16:11.698Z,98974.92
2018-09-21T20:19:16.735Z,98978.08
2018-09-21T20:22:21.846Z,98973.44
2018-09-21T20:25:26.926Z,98972.11
2018-09-21T20:28:31.947Z,98979.84
2018-09-21T20:31:42.762Z,98981.05
2018-09-21T20:34:47.762Z,98987.31
2018-09-21T20:37:52.746Z,98995.96
2018-09-21T20:40:58.029Z,99007.06
2018-09-21T20:44:03.033Z,99001.70
2018-09-21T20:47:08.297Z,99003.81
2018-09-21T20:50:13.391Z,99003.68
2018-09-21T20:53:18.565Z,99002.59
2018-09-21T20:56:23.589Z,99015.02
2018-09-21T20:59:28.622Z,99029.81
2018-09-21T21:02:33.628Z,99029.94
2018-09-21T21:05:38.598Z,99036.17
2018-09-21T21:08:43.574Z,99040.04
2018-09-21T21:14:59.591Z,99058.28
2018-09-21T21:18:04.909Z,99063.83
2018-09-21T21:21:09.875Z,99060.38
2018-09-21T21:24:15.106Z,99068.87
2018-09-21T21:27:20.117Z,99070.95
2018-09-21T21:30:25.353Z,99067.71
2018-09-21T21:33:30.337Z,99074.68
2018-09-21T21:36:35.330Z,99085.72
2018-09-21T21:39:40.337Z,99079.41
2018-09-21T21:42:45.327Z,99082.82
2018-09-21T21:45:50.280Z,99092.91
2018-09-21T21:48:55.243Z,99099.13
2018-09-21T21:52:00.235Z,99095.44
2018-09-21T21:55:05.264Z,99100.71
2018-09-21T21:58:10.237Z,99109.54
2018-09-21T22:04:18.670Z,99121.47
2018-09-21T22:07:23.678Z,99117.08
2018-09-21T22:10:28.633Z,99128.45
2018-09-21T22:13:39.389Z,99117.13
2018-09-21T22:16:44.353Z,99113.98
2018-09-21T22:19:49.325Z,99115.23
2018-09-21T22:22:54.288Z,99124.22
2018-09-21T22:25:59.231Z,99127.19
2018-09-21T22:29:04.280Z,99125.41
2018-09-21T22:32:09.254Z,99135.16
2018-09-21T22:35:14.238Z,99143.27
2018-09-21T22:38:19.219Z,99132.34
2018-09-21T22:41:24.197Z,99134.49
2018-09-21T22:44:29.183Z,99134.75
2018-09-21T22:47:34.182Z,99129.18
2018-09-21T22:50:39.127Z,99132.17
2018-09-21T22:53:44.288Z,99130.27
2018-09-21T22:56:49.270Z,99134.95
2018-09-21T22:59:54.225Z,99135.22
2018-09-21T23:02:59.225Z,99142.08
2018-09-21T23:06:04.246Z,99144.38
2018-09-21T23:09:11.135Z,99148.39
2018-09-21T23:12:16.129Z,99146.63
2018-09-21T23:15:21.122Z,99157.14
2018-09-21T23:18:26.104Z,99157.33
2018-09-21T23:21:31.088Z,99160.85
2018-09-21T23:24:36.079Z,99162.97
2018-09-21T23:27:41.050Z,99164.20
2018-09-21T23:30:46.051Z,99164.75
2018-09-21T23:33:51.109Z,99167.38
2018-09-21T23:36:56.093Z,99172.41
2018-09-21T23:40:01.193Z,99180.13
2018-09-21T23:43:06.174Z,99177.75
2018-09-21T23:46:11.131Z,99179.98
2018-09-21T23:49:16.113Z,99189.28
2018-09-21T23:52:21.178Z,99193.41
2018-09-21T23:55:26.151Z,99195.55
2018-09-21T23:58:31.126Z,99196.48
